Aviation Digital Data Service (ADDS)

Output produced by METARs form (1212 UTC 23 August 2017)
found at http://aviationweather.gov/adds/metars/
 
KMPV 231120Z 2312/2412 28010G20KT P6SM FEW035 FEW050 
     FM240000 VRB05KT P6SM FEW150 
     FM240700 VRB03KT P6SM SCT015